sensor_id;sensor_type;location;lat;lon;timestamp;pressure;altitude;pressure_sealevel;temperature;humidity
9335;BME280;4706;41.844;26.082;2024-01-30T00:01:00;103003.63;;;5.72;59.99
9335;BME280;4706;41.844;26.082;2024-01-30T00:03:26;103012.00;;;5.77;59.13
9335;BME280;4706;41.844;26.082;2024-01-30T00:05:52;103004.00;;;5.62;59.18
9335;BME280;4706;41.844;26.082;2024-01-30T00:08:17;103015.56;;;5.77;58.38
9335;BME280;4706;41.844;26.082;2024-01-30T00:10:43;103013.47;;;5.73;58.74
9335;BME280;4706;41.844;26.082;2024-01-30T00:13:08;103003.59;;;5.65;58.87
9335;BME280;4706;41.844;26.082;2024-01-30T00:15:34;103009.88;;;5.59;58.57
9335;BME280;4706;41.844;26.082;2024-01-30T00:18:00;103006.97;;;5.60;58.33
9335;BME280;4706;41.844;26.082;2024-01-30T00:20:26;103014.28;;;5.60;59.44
9335;BME280;4706;41.844;26.082;2024-01-30T00:22:51;103009.91;;;5.66;59.40
9335;BME280;4706;41.844;26.082;2024-01-30T00:25:17;102998.97;;;5.59;59.58
9335;BME280;4706;41.844;26.082;2024-01-30T00:27:42;103000.84;;;5.58;58.81
9335;BME280;4706;41.844;26.082;2024-01-30T00:30:08;102998.31;;;5.64;58.91
9335;BME280;4706;41.844;26.082;2024-01-30T00:32:34;102989.94;;;5.58;58.05
9335;BME280;4706;41.844;26.082;2024-01-30T00:34:59;102998.53;;;5.62;59.38
9335;BME280;4706;41.844;26.082;2024-01-30T00:37:25;102991.41;;;5.61;58.33
9335;BME280;4706;41.844;26.082;2024-01-30T00:39:50;102992.25;;;5.62;57.53
9335;BME280;4706;41.844;26.082;2024-01-30T00:42:15;103000.66;;;5.67;58.05
9335;BME280;4706;41.844;26.082;2024-01-30T00:44:41;102994.56;;;5.65;57.88
9335;BME280;4706;41.844;26.082;2024-01-30T00:47:06;102996.66;;;5.63;58.66
9335;BME280;4706;41.844;26.082;2024-01-30T00:49:33;102998.53;;;5.55;57.43
9335;BME280;4706;41.844;26.082;2024-01-30T00:51:59;102997.28;;;5.51;58.83
9335;BME280;4706;41.844;26.082;2024-01-30T00:54:24;102994.75;;;5.50;57.85
9335;BME280;4706;41.844;26.082;2024-01-30T00:56:49;102996.81;;;5.34;57.78
9335;BME280;4706;41.844;26.082;2024-01-30T00:59:15;103005.00;;;5.28;57.79
9335;BME280;4706;41.844;26.082;2024-01-30T01:01:40;102999.31;;;5.23;58.69
9335;BME280;4706;41.844;26.082;2024-01-30T01:04:06;103005.16;;;5.13;59.78
9335;BME280;4706;41.844;26.082;2024-01-30T01:06:32;103005.09;;;4.93;59.54
9335;BME280;4706;41.844;26.082;2024-01-30T01:08:58;102985.25;;;4.71;60.19
9335;BME280;4706;41.844;26.082;2024-01-30T01:11:23;102995.16;;;4.79;60.84
9335;BME280;4706;41.844;26.082;2024-01-30T01:13:48;102992.44;;;4.79;60.71
9335;BME280;4706;41.844;26.082;2024-01-30T01:16:14;102987.41;;;4.41;61.14
9335;BME280;4706;41.844;26.082;2024-01-30T01:18:39;102983.56;;;4.29;62.05
9335;BME280;4706;41.844;26.082;2024-01-30T01:21:05;102973.44;;;4.23;62.23
9335;BME280;4706;41.844;26.082;2024-01-30T01:23:31;102984.34;;;3.95;63.18
9335;BME280;4706;41.844;26.082;2024-01-30T01:25:56;102982.16;;;4.11;63.22
9335;BME280;4706;41.844;26.082;2024-01-30T01:28:22;102976.56;;;4.20;62.86
9335;BME280;4706;41.844;26.082;2024-01-30T01:30:47;102962.56;;;4.23;62.95
9335;BME280;4706;41.844;26.082;2024-01-30T01:33:13;102964.28;;;4.30;62.76
9335;BME280;4706;41.844;26.082;2024-01-30T01:35:39;102944.41;;;4.36;63.28
9335;BME280;4706;41.844;26.082;2024-01-30T01:38:05;102947.19;;;4.50;62.73
9335;BME280;4706;41.844;26.082;2024-01-30T01:40:31;102965.66;;;4.48;62.52
9335;BME280;4706;41.844;26.082;2024-01-30T01:42:56;102959.75;;;4.44;63.53
9335;BME280;4706;41.844;26.082;2024-01-30T01:45:22;102960.59;;;4.45;63.10
9335;BME280;4706;41.844;26.082;2024-01-30T01:47:52;102960.09;;;4.34;64.22
9335;BME280;4706;41.844;26.082;2024-01-30T01:50:18;102962.38;;;4.31;64.31
9335;BME280;4706;41.844;26.082;2024-01-30T01:52:44;102956.66;;;4.19;64.13
9335;BME280;4706;41.844;26.082;2024-01-30T01:55:12;102958.22;;;4.35;64.47
9335;BME280;4706;41.844;26.082;2024-01-30T01:57:38;102956.72;;;4.32;63.65
9335;BME280;4706;41.844;26.082;2024-01-30T02:00:04;102965.63;;;4.13;64.13
9335;BME280;4706;41.844;26.082;2024-01-30T02:02:31;102956.72;;;4.26;64.19
9335;BME280;4706;41.844;26.082;2024-01-30T02:05:00;102960.16;;;4.41;63.36
9335;BME280;4706;41.844;26.082;2024-01-30T02:07:26;102957.78;;;4.31;63.19
9335;BME280;4706;41.844;26.082;2024-01-30T02:09:52;102954.22;;;4.31;63.21
9335;BME280;4706;41.844;26.082;2024-01-30T02:12:18;102947.09;;;4.30;62.66
9335;BME280;4706;41.844;26.082;2024-01-30T02:14:47;102951.94;;;4.34;63.91
9335;BME280;4706;41.844;26.082;2024-01-30T02:17:13;102951.84;;;4.21;62.96
9335;BME280;4706;41.844;26.082;2024-01-30T02:19:40;102944.25;;;4.10;62.78
9335;BME280;4706;41.844;26.082;2024-01-30T02:22:05;102949.19;;;4.00;63.18
9335;BME280;4706;41.844;26.082;2024-01-30T02:24:31;102943.66;;;4.14;63.40
9335;BME280;4706;41.844;26.082;2024-01-30T02:26:57;102941.16;;;4.20;63.60
9335;BME280;4706;41.844;26.082;2024-01-30T02:29:23;102945.59;;;4.27;63.06
9335;BME280;4706;41.844;26.082;2024-01-30T02:31:48;102943.75;;;4.34;62.37
9335;BME280;4706;41.844;26.082;2024-01-30T02:34:14;102930.53;;;4.31;62.56
9335;BME280;4706;41.844;26.082;2024-01-30T02:36:43;102933.69;;;4.35;62.03
9335;BME280;4706;41.844;26.082;2024-01-30T02:39:09;102926.09;;;4.24;62.78
9335;BME280;4706;41.844;26.082;2024-01-30T02:41:35;102935.81;;;4.39;62.57
9335;BME280;4706;41.844;26.082;2024-01-30T02:44:01;102932.41;;;4.31;62.27
9335;BME280;4706;41.844;26.082;2024-01-30T02:46:27;102907.53;;;4.41;60.85
9335;BME280;4706;41.844;26.082;2024-01-30T02:48:52;102915.84;;;4.32;60.95
9335;BME280;4706;41.844;26.082;2024-01-30T02:51:17;102921.69;;;4.23;60.72
9335;BME280;4706;41.844;26.082;2024-01-30T02:53:43;102924.53;;;4.08;61.24
9335;BME280;4706;41.844;26.082;2024-01-30T02:56:08;102928.81;;;3.89;61.29
9335;BME280;4706;41.844;26.082;2024-01-30T02:58:39;102931.69;;;3.81;61.91
9335;BME280;4706;41.844;26.082;2024-01-30T03:01:05;102920.53;;;4.04;61.90
9335;BME280;4706;41.844;26.082;2024-01-30T03:06:45;102925.59;;;4.13;61.79
9335;BME280;4706;41.844;26.082;2024-01-30T03:09:11;102921.53;;;3.96;61.36
9335;BME280;4706;41.844;26.082;2024-01-30T03:11:36;102908.59;;;4.05;61.33
9335;BME280;4706;41.844;26.082;2024-01-30T03:14:02;102917.00;;;4.10;61.74
9335;BME280;4706;41.844;26.082;2024-01-30T03:16:29;102919.56;;;4.18;61.99
9335;BME280;4706;41.844;26.082;2024-01-30T03:18:55;102920.03;;;4.28;61.25
9335;BME280;4706;41.844;26.082;2024-01-30T03:21:20;102920.69;;;4.30;61.92
9335;BME280;4706;41.844;26.082;2024-01-30T03:23:46;102908.13;;;4.29;62.04
9335;BME280;4706;41.844;26.082;2024-01-30T03:26:12;102923.00;;;4.33;62.14
9335;BME280;4706;41.844;26.082;2024-01-30T03:28:38;102919.03;;;4.36;62.23
9335;BME280;4706;41.844;26.082;2024-01-30T03:31:03;102918.88;;;4.44;62.83
9335;BME280;4706;41.844;26.082;2024-01-30T03:33:29;102918.91;;;4.57;62.05
9335;BME280;4706;41.844;26.082;2024-01-30T03:35:54;102918.69;;;4.52;61.64
9335;BME280;4706;41.844;26.082;2024-01-30T03:38:20;102921.00;;;4.49;61.45
9335;BME280;4706;41.844;26.082;2024-01-30T03:40:45;102908.63;;;4.53;61.57
9335;BME280;4706;41.844;26.082;2024-01-30T03:43:11;102912.81;;;4.49;62.02
9335;BME280;4706;41.844;26.082;2024-01-30T03:45:36;102909.44;;;4.40;62.33
9335;BME280;4706;41.844;26.082;2024-01-30T03:48:02;102908.19;;;4.49;61.84
9335;BME280;4706;41.844;26.082;2024-01-30T03:50:27;102907.84;;;4.59;62.22
9335;BME280;4706;41.844;26.082;2024-01-30T03:52:53;102905.28;;;4.57;61.80
9335;BME280;4706;41.844;26.082;2024-01-30T03:55:19;102901.47;;;4.45;62.44
9335;BME280;4706;41.844;26.082;2024-01-30T03:57:44;102906.94;;;4.45;62.91
9335;BME280;4706;41.844;26.082;2024-01-30T04:00:10;102914.13;;;4.59;64.08
9335;BME280;4706;41.844;26.082;2024-01-30T04:02:35;102911.41;;;4.66;63.06
9335;BME280;4706;41.844;26.082;2024-01-30T04:05:01;102920.69;;;4.78;63.24
9335;BME280;4706;41.844;26.082;2024-01-30T04:07:27;102911.69;;;4.84;62.74
9335;BME280;4706;41.844;26.082;2024-01-30T04:09:52;102909.16;;;4.83;62.94
9335;BME280;4706;41.844;26.082;2024-01-30T04:12:18;102903.09;;;4.87;62.70
9335;BME280;4706;41.844;26.082;2024-01-30T04:14:43;102894.72;;;4.96;62.26
9335;BME280;4706;41.844;26.082;2024-01-30T04:17:09;102904.38;;;4.98;63.09
9335;BME280;4706;41.844;26.082;2024-01-30T04:19:37;102908.78;;;4.99;63.29
9335;BME280;4706;41.844;26.082;2024-01-30T04:22:03;102906.91;;;5.06;62.55
9335;BME280;4706;41.844;26.082;2024-01-30T04:24:29;102905.84;;;5.07;62.28
9335;BME280;4706;41.844;26.082;2024-01-30T04:26:54;102891.38;;;5.07;62.23
9335;BME280;4706;41.844;26.082;2024-01-30T04:29:21;102899.59;;;5.14;62.23
9335;BME280;4706;41.844;26.082;2024-01-30T04:31:47;102907.78;;;5.14;62.90
9335;BME280;4706;41.844;26.082;2024-01-30T04:34:13;102898.09;;;5.11;62.52
9335;BME280;4706;41.844;26.082;2024-01-30T04:36:38;102909.25;;;5.16;62.74
9335;BME280;4706;41.844;26.082;2024-01-30T04:39:04;102897.28;;;5.17;62.99
9335;BME280;4706;41.844;26.082;2024-01-30T04:41:29;102902.78;;;5.30;62.36
9335;BME280;4706;41.844;26.082;2024-01-30T04:43:56;102898.34;;;5.29;62.17
9335;BME280;4706;41.844;26.082;2024-01-30T04:46:22;102915.56;;;5.36;62.21
9335;BME280;4706;41.844;26.082;2024-01-30T04:48:47;102913.06;;;5.35;62.15
9335;BME280;4706;41.844;26.082;2024-01-30T04:51:13;102906.31;;;5.38;62.30
9335;BME280;4706;41.844;26.082;2024-01-30T04:53:38;102901.72;;;5.38;62.40
9335;BME280;4706;41.844;26.082;2024-01-30T04:56:05;102906.56;;;5.43;62.52
9335;BME280;4706;41.844;26.082;2024-01-30T04:58:31;102903.41;;;5.46;62.37
9335;BME280;4706;41.844;26.082;2024-01-30T05:00:56;102892.69;;;5.57;60.99
9335;BME280;4706;41.844;26.082;2024-01-30T05:03:21;102889.97;;;5.51;61.10
9335;BME280;4706;41.844;26.082;2024-01-30T05:05:48;102886.19;;;5.52;61.92
9335;BME280;4706;41.844;26.082;2024-01-30T05:08:14;102880.50;;;5.40;62.50
9335;BME280;4706;41.844;26.082;2024-01-30T05:10:40;102874.63;;;5.36;61.87
9335;BME280;4706;41.844;26.082;2024-01-30T05:13:05;102897.09;;;5.45;62.69
9335;BME280;4706;41.844;26.082;2024-01-30T05:15:30;102904.03;;;5.48;62.34
9335;BME280;4706;41.844;26.082;2024-01-30T05:17:56;102890.59;;;5.40;62.58
9335;BME280;4706;41.844;26.082;2024-01-30T05:20:21;102904.44;;;5.45;63.03
9335;BME280;4706;41.844;26.082;2024-01-30T05:22:47;102882.41;;;5.40;62.28
9335;BME280;4706;41.844;26.082;2024-01-30T05:25:13;102895.63;;;5.56;61.14
9335;BME280;4706;41.844;26.082;2024-01-30T05:27:38;102900.06;;;5.57;61.17
9335;BME280;4706;41.844;26.082;2024-01-30T05:30:06;102910.97;;;5.57;61.63
9335;BME280;4706;41.844;26.082;2024-01-30T05:32:32;102903.00;;;5.69;61.23
9335;BME280;4706;41.844;26.082;2024-01-30T05:34:57;102901.50;;;5.59;61.89
9335;BME280;4706;41.844;26.082;2024-01-30T05:37:23;102912.22;;;5.48;62.22
9335;BME280;4706;41.844;26.082;2024-01-30T05:39:48;102916.22;;;5.52;61.69
9335;BME280;4706;41.844;26.082;2024-01-30T05:42:14;102908.25;;;5.57;61.62
9335;BME280;4706;41.844;26.082;2024-01-30T05:44:40;102919.16;;;5.50;62.35
9335;BME280;4706;41.844;26.082;2024-01-30T05:47:06;102921.88;;;5.70;61.93
9335;BME280;4706;41.844;26.082;2024-01-30T05:49:31;102920.81;;;5.71;61.22
9335;BME280;4706;41.844;26.082;2024-01-30T05:51:57;102923.13;;;5.74;61.03
9335;BME280;4706;41.844;26.082;2024-01-30T05:54:22;102919.56;;;5.67;61.46
9335;BME280;4706;41.844;26.082;2024-01-30T05:56:47;102921.47;;;5.67;61.33
9335;BME280;4706;41.844;26.082;2024-01-30T05:59:13;102921.03;;;5.70;61.47
9335;BME280;4706;41.844;26.082;2024-01-30T06:01:45;102927.75;;;5.67;61.91
9335;BME280;4706;41.844;26.082;2024-01-30T06:04:11;102932.38;;;5.73;62.03
9335;BME280;4706;41.844;26.082;2024-01-30T06:06:36;102928.38;;;5.82;60.91
9335;BME280;4706;41.844;26.082;2024-01-30T06:09:02;102929.44;;;5.88;61.22
9335;BME280;4706;41.844;26.082;2024-01-30T06:11:27;102938.91;;;5.92;61.05
9335;BME280;4706;41.844;26.082;2024-01-30T06:13:53;102930.69;;;5.85;61.65
9335;BME280;4706;41.844;26.082;2024-01-30T06:16:19;102932.16;;;5.81;61.44
9335;BME280;4706;41.844;26.082;2024-01-30T06:18:46;102933.66;;;5.91;60.47
9335;BME280;4706;41.844;26.082;2024-01-30T06:21:13;102932.81;;;5.83;61.17
9335;BME280;4706;41.844;26.082;2024-01-30T06:23:38;102929.25;;;5.70;61.76
9335;BME280;4706;41.844;26.082;2024-01-30T06:26:06;102920.22;;;5.76;61.61
9335;BME280;4706;41.844;26.082;2024-01-30T06:28:31;102929.66;;;5.80;61.90
9335;BME280;4706;41.844;26.082;2024-01-30T06:30:57;102898.78;;;5.59;61.40
9335;BME280;4706;41.844;26.082;2024-01-30T06:33:22;102929.84;;;5.85;61.25
9335;BME280;4706;41.844;26.082;2024-01-30T06:35:48;102928.84;;;5.93;60.98
9335;BME280;4706;41.844;26.082;2024-01-30T06:38:13;102923.34;;;5.86;61.19
9335;BME280;4706;41.844;26.082;2024-01-30T06:40:41;102919.38;;;5.95;61.26
9335;BME280;4706;41.844;26.082;2024-01-30T06:43:07;102914.31;;;5.85;61.08
9335;BME280;4706;41.844;26.082;2024-01-30T06:45:33;102923.16;;;5.88;61.52
9335;BME280;4706;41.844;26.082;2024-01-30T06:48:00;102933.00;;;5.89;62.09
9335;BME280;4706;41.844;26.082;2024-01-30T06:50:25;102940.59;;;5.93;61.53
9335;BME280;4706;41.844;26.082;2024-01-30T06:52:51;102937.03;;;5.99;60.93
9335;BME280;4706;41.844;26.082;2024-01-30T06:55:18;102943.31;;;6.00;60.98
9335;BME280;4706;41.844;26.082;2024-01-30T06:57:43;102929.63;;;5.87;61.58
9335;BME280;4706;41.844;26.082;2024-01-30T07:00:09;102936.59;;;5.96;60.78
9335;BME280;4706;41.844;26.082;2024-01-30T07:02:35;102933.03;;;6.02;60.72
9335;BME280;4706;41.844;26.082;2024-01-30T07:05:00;102936.56;;;6.09;60.26
9335;BME280;4706;41.844;26.082;2024-01-30T07:07:26;102938.47;;;6.08;60.33
9335;BME280;4706;41.844;26.082;2024-01-30T07:09:52;102922.31;;;5.94;60.65
9335;BME280;4706;41.844;26.082;2024-01-30T07:12:22;102946.47;;;6.10;60.42
9335;BME280;4706;41.844;26.082;2024-01-30T07:14:49;102938.22;;;6.30;59.28
9335;BME280;4706;41.844;26.082;2024-01-30T07:17:15;102939.91;;;6.31;58.75
9335;BME280;4706;41.844;26.082;2024-01-30T07:19:41;102943.03;;;6.41;58.71
9335;BME280;4706;41.844;26.082;2024-01-30T07:22:06;102927.47;;;6.35;58.50
9335;BME280;4706;41.844;26.082;2024-01-30T07:24:32;102929.19;;;6.36;58.77
9335;BME280;4706;41.844;26.082;2024-01-30T07:26:57;102933.19;;;6.33;58.61
9335;BME280;4706;41.844;26.082;2024-01-30T07:29:23;102921.19;;;6.35;58.75
9335;BME280;4706;41.844;26.082;2024-01-30T07:31:48;102922.25;;;6.33;58.54
9335;BME280;4706;41.844;26.082;2024-01-30T07:34:14;102913.19;;;6.33;58.76
9335;BME280;4706;41.844;26.082;2024-01-30T07:36:39;102914.47;;;6.30;58.48
9335;BME280;4706;41.844;26.082;2024-01-30T07:39:05;102927.28;;;6.30;58.24
9335;BME280;4706;41.844;26.082;2024-01-30T07:41:30;102935.72;;;6.15;59.57
9335;BME280;4706;41.844;26.082;2024-01-30T07:43:56;102931.34;;;6.14;58.80
9335;BME280;4706;41.844;26.082;2024-01-30T07:46:21;102918.91;;;6.12;59.04
9335;BME280;4706;41.844;26.082;2024-01-30T07:48:46;102932.78;;;6.17;59.35
9335;BME280;4706;41.844;26.082;2024-01-30T07:51:12;102938.47;;;6.15;59.14
9335;BME280;4706;41.844;26.082;2024-01-30T07:53:37;102933.00;;;6.22;59.58
9335;BME280;4706;41.844;26.082;2024-01-30T07:56:03;102934.66;;;6.29;59.07
9335;BME280;4706;41.844;26.082;2024-01-30T07:58:29;102933.19;;;6.33;58.39
9335;BME280;4706;41.844;26.082;2024-01-30T08:00:54;102948.72;;;6.40;58.24
9335;BME280;4706;41.844;26.082;2024-01-30T08:03:22;102942.38;;;6.46;58.25
9335;BME280;4706;41.844;26.082;2024-01-30T08:05:47;102942.63;;;6.44;58.46
9335;BME280;4706;41.844;26.082;2024-01-30T08:08:12;102925.63;;;6.29;58.63
9335;BME280;4706;41.844;26.082;2024-01-30T08:10:38;102939.25;;;6.42;58.61
9335;BME280;4706;41.844;26.082;2024-01-30T08:13:03;102932.31;;;6.40;60.09
9335;BME280;4706;41.844;26.082;2024-01-30T08:15:29;102932.09;;;6.48;59.39
9335;BME280;4706;41.844;26.082;2024-01-30T08:17:54;102935.63;;;6.55;57.51
9335;BME280;4706;41.844;26.082;2024-01-30T08:20:24;102934.00;;;6.41;58.35
9335;BME280;4706;41.844;26.082;2024-01-30T08:22:49;102935.47;;;6.43;58.39
9335;BME280;4706;41.844;26.082;2024-01-30T08:25:15;102943.47;;;6.38;57.79
9335;BME280;4706;41.844;26.082;2024-01-30T08:27:40;102941.78;;;6.44;57.84
9335;BME280;4706;41.844;26.082;2024-01-30T08:30:07;102951.00;;;6.49;58.44
9335;BME280;4706;41.844;26.082;2024-01-30T08:32:32;102940.72;;;6.45;58.05
9335;BME280;4706;41.844;26.082;2024-01-30T08:34:59;102937.38;;;6.36;58.48
9335;BME280;4706;41.844;26.082;2024-01-30T08:37:24;102941.38;;;6.40;57.66
9335;BME280;4706;41.844;26.082;2024-01-30T08:39:50;102944.91;;;6.47;58.20
9335;BME280;4706;41.844;26.082;2024-01-30T08:42:15;102950.56;;;6.59;57.61
9335;BME280;4706;41.844;26.082;2024-01-30T08:44:43;102939.63;;;6.59;58.62
9335;BME280;4706;41.844;26.082;2024-01-30T08:47:09;102959.56;;;6.66;58.01
9335;BME280;4706;41.844;26.082;2024-01-30T08:49:34;102951.78;;;6.70;57.31
9335;BME280;4706;41.844;26.082;2024-01-30T08:52:00;102950.75;;;6.64;58.89
9335;BME280;4706;41.844;26.082;2024-01-30T08:54:26;102957.03;;;6.71;58.21
9335;BME280;4706;41.844;26.082;2024-01-30T08:56:51;102966.91;;;6.72;57.59
9335;BME280;4706;41.844;26.082;2024-01-30T08:59:18;102963.75;;;6.75;56.66
9335;BME280;4706;41.844;26.082;2024-01-30T09:01:44;102962.50;;;6.71;57.76
9335;BME280;4706;41.844;26.082;2024-01-30T09:04:09;102945.25;;;6.71;58.21
9335;BME280;4706;41.844;26.082;2024-01-30T09:06:35;102957.00;;;6.78;57.48
9335;BME280;4706;41.844;26.082;2024-01-30T09:09:00;102955.50;;;6.82;57.46
9335;BME280;4706;41.844;26.082;2024-01-30T09:11:26;102957.16;;;6.90;58.51
9335;BME280;4706;41.844;26.082;2024-01-30T09:13:51;102954.81;;;7.00;58.18
9335;BME280;4706;41.844;26.082;2024-01-30T09:16:17;102954.94;;;7.12;56.83
9335;BME280;4706;41.844;26.082;2024-01-30T09:18:42;102949.69;;;7.10;57.18
9335;BME280;4706;41.844;26.082;2024-01-30T09:21:08;102959.72;;;7.23;56.52
9335;BME280;4706;41.844;26.082;2024-01-30T09:23:33;102960.13;;;7.26;55.98
9335;BME280;4706;41.844;26.082;2024-01-30T09:25:59;102950.91;;;7.14;56.36
9335;BME280;4706;41.844;26.082;2024-01-30T09:28:25;102944.81;;;7.19;56.99
9335;BME280;4706;41.844;26.082;2024-01-30T09:30:50;102954.44;;;7.21;56.13
9335;BME280;4706;41.844;26.082;2024-01-30T09:33:15;102950.22;;;7.25;56.22
9335;BME280;4706;41.844;26.082;2024-01-30T09:35:41;102952.78;;;7.20;56.83
9335;BME280;4706;41.844;26.082;2024-01-30T09:38:07;102948.97;;;7.21;56.01
9335;BME280;4706;41.844;26.082;2024-01-30T09:40:32;102944.00;;;7.12;56.39
9335;BME280;4706;41.844;26.082;2024-01-30T09:42:59;102945.00;;;7.17;55.72
9335;BME280;4706;41.844;26.082;2024-01-30T09:45:27;102938.44;;;7.25;57.01
9335;BME280;4706;41.844;26.082;2024-01-30T09:47:53;102938.44;;;7.25;55.94
9335;BME280;4706;41.844;26.082;2024-01-30T09:50:19;102928.59;;;7.17;57.28
9335;BME280;4706;41.844;26.082;2024-01-30T09:52:45;102943.47;;;7.28;55.77
9335;BME280;4706;41.844;26.082;2024-01-30T09:55:11;102945.78;;;7.31;56.26
9335;BME280;4706;41.844;26.082;2024-01-30T09:57:37;102926.81;;;7.29;56.38
9335;BME280;4706;41.844;26.082;2024-01-30T10:00:03;102928.84;;;7.41;55.69
9335;BME280;4706;41.844;26.082;2024-01-30T10:02:31;102931.56;;;7.41;56.39
9335;BME280;4706;41.844;26.082;2024-01-30T10:04:56;102936.41;;;7.45;55.25
9335;BME280;4706;41.844;26.082;2024-01-30T10:07:22;102939.97;;;7.46;55.29
9335;BME280;4706;41.844;26.082;2024-01-30T10:09:48;102932.59;;;7.46;55.48
9335;BME280;4706;41.844;26.082;2024-01-30T10:12:15;102940.25;;;7.38;55.75
9335;BME280;4706;41.844;26.082;2024-01-30T10:14:42;102937.28;;;7.39;56.02
9335;BME280;4706;41.844;26.082;2024-01-30T10:17:08;102936.22;;;7.40;55.09
9335;BME280;4706;41.844;26.082;2024-01-30T10:19:35;102932.84;;;7.45;55.41
9335;BME280;4706;41.844;26.082;2024-01-30T10:22:01;102926.44;;;7.51;55.63
9335;BME280;4706;41.844;26.082;2024-01-30T10:24:26;102921.09;;;7.63;54.79
9335;BME280;4706;41.844;26.082;2024-01-30T10:26:55;102937.31;;;7.64;54.70
9335;BME280;4706;41.844;26.082;2024-01-30T10:29:21;102921.81;;;7.76;54.59
9335;BME280;4706;41.844;26.082;2024-01-30T10:32:00;102924.63;;;7.95;54.55
9335;BME280;4706;41.844;26.082;2024-01-30T10:34:27;102922.06;;;7.75;54.77
9335;BME280;4706;41.844;26.082;2024-01-30T10:37:09;102928.66;;;7.67;54.55
9335;BME280;4706;41.844;26.082;2024-01-30T10:39:41;102929.53;;;7.61;54.14
9335;BME280;4706;41.844;26.082;2024-01-30T10:42:11;102922.41;;;7.60;54.03
9335;BME280;4706;41.844;26.082;2024-01-30T10:44:44;102908.13;;;7.51;54.36
9335;BME280;4706;41.844;26.082;2024-01-30T10:47:18;102910.06;;;7.44;54.27
9335;BME280;4706;41.844;26.082;2024-01-30T10:49:46;102909.06;;;7.39;54.67
9335;BME280;4706;41.844;26.082;2024-01-30T10:52:13;102907.53;;;7.49;55.02
9335;BME280;4706;41.844;26.082;2024-01-30T10:54:40;102908.63;;;7.42;54.95
9335;BME280;4706;41.844;26.082;2024-01-30T10:57:05;102905.78;;;7.30;55.02
9335;BME280;4706;41.844;26.082;2024-01-30T10:59:32;102912.75;;;7.26;54.79
9335;BME280;4706;41.844;26.082;2024-01-30T11:01:59;102912.97;;;7.24;55.06
9335;BME280;4706;41.844;26.082;2024-01-30T11:04:25;102902.81;;;7.32;55.22
9335;BME280;4706;41.844;26.082;2024-01-30T11:06:51;102901.69;;;7.39;55.39
9335;BME280;4706;41.844;26.082;2024-01-30T11:09:17;102890.25;;;7.49;55.08
9335;BME280;4706;41.844;26.082;2024-01-30T11:11:56;102887.28;;;7.50;55.28
9335;BME280;4706;41.844;26.082;2024-01-30T11:14:31;102872.31;;;7.53;54.49
9335;BME280;4706;41.844;26.082;2024-01-30T11:16:59;102890.50;;;7.66;54.12
9335;BME280;4706;41.844;26.082;2024-01-30T11:19:26;102889.63;;;7.47;54.46
9335;BME280;4706;41.844;26.082;2024-01-30T11:21:55;102878.91;;;7.45;54.20
9335;BME280;4706;41.844;26.082;2024-01-30T11:24:25;102883.25;;;7.53;53.72
9335;BME280;4706;41.844;26.082;2024-01-30T11:26:58;102895.94;;;7.47;54.61
9335;BME280;4706;41.844;26.082;2024-01-30T11:29:27;102885.16;;;7.52;54.54
9335;BME280;4706;41.844;26.082;2024-01-30T11:31:58;102891.28;;;7.48;53.97
9335;BME280;4706;41.844;26.082;2024-01-30T11:34:24;102870.28;;;7.42;53.33
9335;BME280;4706;41.844;26.082;2024-01-30T11:36:56;102884.00;;;7.42;54.18
9335;BME280;4706;41.844;26.082;2024-01-30T11:39:26;102882.00;;;7.24;55.06
9335;BME280;4706;41.844;26.082;2024-01-30T11:41:52;102875.56;;;7.12;55.61
9335;BME280;4706;41.844;26.082;2024-01-30T11:44:20;102877.09;;;7.08;55.98
9335;BME280;4706;41.844;26.082;2024-01-30T11:46:50;102877.50;;;7.04;55.52
9335;BME280;4706;41.844;26.082;2024-01-30T11:49:16;102879.59;;;7.09;56.49
9335;BME280;4706;41.844;26.082;2024-01-30T11:51:42;102871.78;;;7.13;55.86
9335;BME280;4706;41.844;26.082;2024-01-30T11:54:07;102870.09;;;7.12;56.12
9335;BME280;4706;41.844;26.082;2024-01-30T11:56:33;102875.16;;;7.15;56.67
9335;BME280;4706;41.844;26.082;2024-01-30T11:58:59;102873.41;;;7.20;56.61
9335;BME280;4706;41.844;26.082;2024-01-30T12:01:26;102858.88;;;7.20;55.93
9335;BME280;4706;41.844;26.082;2024-01-30T12:03:52;102866.03;;;7.21;56.03
9335;BME280;4706;41.844;26.082;2024-01-30T12:06:18;102868.94;;;7.26;55.33
9335;BME280;4706;41.844;26.082;2024-01-30T12:08:57;102857.13;;;7.25;55.65
9335;BME280;4706;41.844;26.082;2024-01-30T12:11:23;102848.69;;;7.34;55.00
9335;BME280;4706;41.844;26.082;2024-01-30T12:13:51;102843.06;;;7.47;54.62
9335;BME280;4706;41.844;26.082;2024-01-30T12:16:16;102839.78;;;7.38;55.13
9335;BME280;4706;41.844;26.082;2024-01-30T12:18:42;102846.94;;;7.39;55.01
9335;BME280;4706;41.844;26.082;2024-01-30T12:21:08;102832.66;;;7.55;54.63
9335;BME280;4706;41.844;26.082;2024-01-30T12:23:34;102837.09;;;7.57;55.00
9335;BME280;4706;41.844;26.082;2024-01-30T12:26:01;102835.63;;;7.54;55.05
9335;BME280;4706;41.844;26.082;2024-01-30T12:28:29;102829.31;;;7.53;54.63
9335;BME280;4706;41.844;26.082;2024-01-30T12:31:04;102829.91;;;7.37;54.79
9335;BME280;4706;41.844;26.082;2024-01-30T12:33:30;102824.25;;;7.32;55.27
9335;BME280;4706;41.844;26.082;2024-01-30T12:35:56;102819.94;;;7.43;54.87
9335;BME280;4706;41.844;26.082;2024-01-30T12:38:24;102827.16;;;7.37;55.02
9335;BME280;4706;41.844;26.082;2024-01-30T12:40:59;102821.22;;;7.40;54.94
9335;BME280;4706;41.844;26.082;2024-01-30T12:43:25;102827.53;;;7.41;54.46
9335;BME280;4706;41.844;26.082;2024-01-30T12:45:52;102827.91;;;7.44;54.69
9335;BME280;4706;41.844;26.082;2024-01-30T12:48:18;102812.41;;;7.38;54.88
9335;BME280;4706;41.844;26.082;2024-01-30T12:50:44;102825.56;;;7.48;54.64
9335;BME280;4706;41.844;26.082;2024-01-30T12:53:09;102821.09;;;7.53;54.54
9335;BME280;4706;41.844;26.082;2024-01-30T12:55:35;102820.66;;;7.57;54.25
9335;BME280;4706;41.844;26.082;2024-01-30T12:58:01;102821.56;;;7.50;54.74
9335;BME280;4706;41.844;26.082;2024-01-30T13:00:27;102814.56;;;7.54;54.44
9335;BME280;4706;41.844;26.082;2024-01-30T13:02:52;102819.59;;;7.58;53.90
9335;BME280;4706;41.844;26.082;2024-01-30T13:05:18;102808.56;;;7.64;54.58
9335;BME280;4706;41.844;26.082;2024-01-30T13:07:43;102819.28;;;7.66;53.92